Time;durP1;ratioP1;P1;durP2;ratioP2;P2;SDS_P1;SDS_P2;PMS_P1;PMS_P2;Temp;Humidity;BMP_temperature;BMP_pressure;BME280_temperature;BME280_humidity;BME280_pressure;Samples;Min_cycle;Max_cycle;Signal;HPM_P1;HPM_P2
2023/09/27 00:01:10;;;;;;;4.50;3.67;;;;;;;;;;6254926;23;20440;-87
2023/09/27 00:03:37;;;;;;;6.47;5.17;;;;;;;;;;6225506;23;20374;-87
2023/09/27 00:06:03;;;;;;;4.50;4.10;;;;;;;;;;6225506;23;20432;-88
2023/09/27 00:08:29;;;;;;;5.70;3.87;;;;;;;;;;6225261;23;20394;-88
2023/09/27 00:10:55;;;;;;;5.30;4.80;;;;;;;;;;6229310;23;20398;-88
2023/09/27 00:13:21;;;;;;;6.87;4.37;;;;;;;;;;6227955;23;20408;-88
2023/09/27 00:16:01;;;;;;;5.27;4.43;;;;;;;;;;6230753;22;20358;-88
2023/09/27 00:18:27;;;;;;;7.27;4.37;;;;;;;;;;6206073;23;20378;-87
2023/09/27 00:20:53;;;;;;;4.90;4.20;;;;;;;;;;6227144;23;20430;-88
2023/09/27 00:23:19;;;;;;;4.50;3.93;;;;;;;;;;6229813;23;20378;-88
2023/09/27 00:25:45;;;;;;;5.00;3.40;;;;;;;;;;6253487;22;20468;-88
2023/09/27 00:28:12;;;;;;;4.90;4.40;;;;;;;;;;6228657;23;20381;-88
2023/09/27 00:30:38;;;;;;;4.00;3.53;;;;;;;;;;6259546;22;20473;-88
2023/09/27 00:33:04;;;;;;;5.83;4.47;;;;;;;;;;6234840;22;20373;-88
2023/09/27 00:35:31;;;;;;;5.53;5.00;;;;;;;;;;6261537;22;20362;-89
2023/09/27 00:37:59;;;;;;;7.60;5.27;;;;;;;;;;6258836;22;20500;-88
2023/09/27 00:40:25;;;;;;;6.77;4.57;;;;;;;;;;6236178;22;20425;-88
2023/09/27 00:42:51;;;;;;;5.73;4.60;;;;;;;;;;6231861;22;20806;-88
2023/09/27 00:45:18;;;;;;;6.03;5.40;;;;;;;;;;6236368;22;20393;-88
2023/09/27 00:47:44;;;;;;;4.00;3.60;;;;;;;;;;6233504;22;20389;-88
2023/09/27 00:50:10;;;;;;;6.37;5.03;;;;;;;;;;6241886;22;20420;-88
2023/09/27 00:52:37;;;;;;;5.43;4.57;;;;;;;;;;6233716;22;20376;-88
2023/09/27 00:55:03;;;;;;;4.40;3.97;;;;;;;;;;6233491;22;20377;-89
2023/09/27 00:57:29;;;;;;;4.10;3.70;;;;;;;;;;6232295;22;20450;-88
2023/09/27 00:59:55;;;;;;;4.90;4.03;;;;;;;;;;6236522;22;20377;-88
2023/09/27 01:02:21;;;;;;;5.53;4.20;;;;;;;;;;6231892;22;20397;-88
2023/09/27 01:04:47;;;;;;;5.60;4.33;;;;;;;;;;6237015;22;20439;-88
2023/09/27 01:07:13;;;;;;;4.17;3.77;;;;;;;;;;6232201;22;20361;-87
2023/09/27 01:09:39;;;;;;;4.50;3.83;;;;;;;;;;6232256;22;20441;-87
2023/09/27 01:12:05;;;;;;;12.03;4.47;;;;;;;;;;6232179;22;20373;-88
2023/09/27 01:14:31;;;;;;;5.17;4.60;;;;;;;;;;6234601;22;20394;-88
2023/09/27 01:17:07;;;;;;;5.63;3.80;;;;;;;;;;6230630;22;20391;-87
2023/09/27 01:19:34;;;;;;;4.07;3.60;;;;;;;;;;6261255;22;20844;-87
2023/09/27 01:22:00;;;;;;;4.70;4.23;;;;;;;;;;6232018;22;20924;-88
2023/09/27 01:24:26;;;;;;;5.43;4.90;;;;;;;;;;6239972;22;20377;-88
2023/09/27 01:26:53;;;;;;;5.00;4.43;;;;;;;;;;6231808;22;20394;-89
2023/09/27 01:29:19;;;;;;;4.40;3.87;;;;;;;;;;6233069;22;20463;-88
2023/09/27 01:31:45;;;;;;;4.60;4.13;;;;;;;;;;6232993;22;21219;-87
2023/09/27 01:34:11;;;;;;;4.67;4.17;;;;;;;;;;6261735;22;20381;-87
2023/09/27 01:36:37;;;;;;;3.93;3.50;;;;;;;;;;6233073;22;20456;-88
2023/09/27 01:39:03;;;;;;;4.93;4.43;;;;;;;;;;6234837;22;20374;-88
2023/09/27 01:41:29;;;;;;;4.90;4.47;;;;;;;;;;6232295;22;20468;-88
2023/09/27 01:43:55;;;;;;;4.53;4.13;;;;;;;;;;6234839;22;20374;-88
2023/09/27 01:46:22;;;;;;;4.93;3.70;;;;;;;;;;6233354;22;20398;-88
2023/09/27 01:48:48;;;;;;;5.03;3.80;;;;;;;;;;6235063;22;20408;-88
2023/09/27 01:51:19;;;;;;;5.60;4.53;;;;;;;;;;6233636;22;20365;-87
2023/09/27 01:53:45;;;;;;;5.17;3.93;;;;;;;;;;6260156;22;20405;-87
2023/09/27 01:56:17;;;;;;;7.20;4.07;;;;;;;;;;6231908;22;20373;-87
2023/09/27 01:58:43;;;;;;;4.80;4.00;;;;;;;;;;6260784;22;20350;-86
2023/09/27 02:01:09;;;;;;;5.57;4.50;;;;;;;;;;6222951;23;20429;-87
2023/09/27 02:03:35;;;;;;;4.83;4.40;;;;;;;;;;6224920;23;20382;-87
2023/09/27 02:06:02;;;;;;;5.67;4.23;;;;;;;;;;6222930;23;20406;-87
2023/09/27 02:08:30;;;;;;;4.90;4.50;;;;;;;;;;6224736;23;20401;-87
2023/09/27 02:10:56;;;;;;;5.00;4.53;;;;;;;;;;6224815;23;20378;-87
2023/09/27 02:13:22;;;;;;;4.90;4.17;;;;;;;;;;6226520;23;20387;-87
2023/09/27 02:15:51;;;;;;;4.90;4.40;;;;;;;;;;6225273;23;20518;-87
2023/09/27 02:18:16;;;;;;;5.93;4.00;;;;;;;;;;6227751;23;20401;-87
2023/09/27 02:20:43;;;;;;;5.33;4.90;;;;;;;;;;6225709;23;20474;-87
2023/09/27 02:23:08;;;;;;;5.17;4.23;;;;;;;;;;6228572;23;20405;-86
2023/09/27 02:25:34;;;;;;;4.13;3.60;;;;;;;;;;6226647;23;20414;-87
2023/09/27 02:28:00;;;;;;;4.77;4.10;;;;;;;;;;6232416;23;20390;-87
2023/09/27 02:30:26;;;;;;;7.67;4.40;;;;;;;;;;6227036;23;20943;-87
2023/09/27 02:32:52;;;;;;;5.77;4.00;;;;;;;;;;6234078;22;20427;-87
2023/09/27 02:35:19;;;;;;;4.77;3.93;;;;;;;;;;6232830;22;20404;-87
2023/09/27 02:37:45;;;;;;;6.03;4.13;;;;;;;;;;6236426;22;20373;-87
2023/09/27 02:40:14;;;;;;;4.47;4.07;;;;;;;;;;6232139;22;20704;-88
2023/09/27 02:42:40;;;;;;;5.77;3.73;;;;;;;;;;6264433;22;20369;-87
2023/09/27 02:45:08;;;;;;;4.87;3.40;;;;;;;;;;6231768;22;20433;-87
2023/09/27 02:47:35;;;;;;;4.83;4.37;;;;;;;;;;6231680;22;20368;-88
2023/09/27 02:50:02;;;;;;;4.50;3.53;;;;;;;;;;6229887;22;20374;-88
2023/09/27 02:52:28;;;;;;;4.20;3.80;;;;;;;;;;6233897;22;20392;-87
2023/09/27 02:54:54;;;;;;;6.10;4.70;;;;;;;;;;6254620;22;20365;-88
2023/09/27 02:57:20;;;;;;;5.80;4.60;;;;;;;;;;6231964;22;20911;-88
2023/09/27 02:59:46;;;;;;;4.90;3.93;;;;;;;;;;6231517;22;20393;-86
2023/09/27 03:02:13;;;;;;;9.70;4.53;;;;;;;;;;6239793;22;21049;-87
2023/09/27 03:04:40;;;;;;;4.50;4.10;;;;;;;;;;6231677;22;20389;-88
2023/09/27 03:07:08;;;;;;;3.63;3.33;;;;;;;;;;6231315;22;20781;-88
2023/09/27 03:09:34;;;;;;;4.57;4.17;;;;;;;;;;6231899;22;20416;-87
2023/09/27 03:12:00;;;;;;;4.37;3.90;;;;;;;;;;6234410;22;20406;-88
2023/09/27 03:14:27;;;;;;;3.90;3.43;;;;;;;;;;6231162;22;20381;-88
2023/09/27 03:16:54;;;;;;;5.10;4.20;;;;;;;;;;6258801;22;20378;-88
2023/09/27 03:19:22;;;;;;;4.60;3.47;;;;;;;;;;6257914;22;20385;-87
2023/09/27 03:21:48;;;;;;;3.63;3.10;;;;;;;;;;6230930;22;20520;-88
2023/09/27 03:24:17;;;;;;;4.67;4.27;;;;;;;;;;6232021;22;20381;-88
2023/09/27 03:26:43;;;;;;;7.03;4.90;;;;;;;;;;6259345;22;20393;-87
2023/09/27 03:29:09;;;;;;;5.60;4.57;;;;;;;;;;6251428;22;20394;-87
2023/09/27 03:31:35;;;;;;;6.27;4.33;;;;;;;;;;6227616;23;20386;-87
2023/09/27 03:34:01;;;;;;;5.03;4.37;;;;;;;;;;6225316;23;20477;-88
2023/09/27 03:36:34;;;;;;;4.90;4.50;;;;;;;;;;6229943;22;20449;-87
2023/09/27 03:39:00;;;;;;;4.93;4.20;;;;;;;;;;6253018;22;20358;-87
2023/09/27 03:41:27;;;;;;;8.90;7.40;;;;;;;;;;6226371;23;20461;-87
2023/09/27 03:43:54;;;;;;;7.90;6.70;;;;;;;;;;6253819;23;20366;-87
2023/09/27 03:46:21;;;;;;;22.53;12.20;;;;;;;;;;6193307;23;20766;-87
2023/09/27 03:48:47;;;;;;;32.43;21.50;;;;;;;;;;6173780;23;20412;-87
2023/09/27 03:51:13;;;;;;;38.50;22.53;;;;;;;;;;6170976;23;20375;-87
2023/09/27 03:53:39;;;;;;;25.40;17.13;;;;;;;;;;6169876;23;20826;-86
2023/09/27 03:56:05;;;;;;;20.23;13.80;;;;;;;;;;6173445;23;20750;-88
2023/09/27 03:58:31;;;;;;;17.63;10.60;;;;;;;;;;6176866;23;20425;-87
2023/09/27 04:00:57;;;;;;;14.07;10.53;;;;;;;;;;6198243;23;20410;-88
2023/09/27 04:03:23;;;;;;;15.40;9.60;;;;;;;;;;6174136;23;20378;-88
2023/09/27 04:05:51;;;;;;;12.27;9.40;;;;;;;;;;6198445;23;20461;-88
2023/09/27 04:08:17;;;;;;;12.63;10.17;;;;;;;;;;6205350;23;20378;-88
2023/09/27 04:10:43;;;;;;;10.37;7.10;;;;;;;;;;6173438;23;20439;-86
2023/09/27 04:13:10;;;;;;;9.17;7.60;;;;;;;;;;6199579;23;20413;-88
2023/09/27 04:15:36;;;;;;;11.83;8.00;;;;;;;;;;6219364;22;20552;-89
2023/09/27 04:18:03;;;;;;;7.80;6.43;;;;;;;;;;6230058;23;20755;-88
2023/09/27 04:20:30;;;;;;;9.43;4.87;;;;;;;;;;6228331;23;20414;-87
2023/09/27 04:22:56;;;;;;;8.83;5.97;;;;;;;;;;6229527;23;20493;-88
2023/09/27 04:25:25;;;;;;;7.30;5.80;;;;;;;;;;6229444;23;20370;-88
2023/09/27 04:27:52;;;;;;;5.53;5.03;;;;;;;;;;6233532;23;20373;-88
2023/09/27 04:30:22;;;;;;;7.10;6.40;;;;;;;;;;6233605;22;20362;-88
2023/09/27 04:32:50;;;;;;;8.47;5.20;;;;;;;;;;6231072;23;20414;-88
2023/09/27 04:35:16;;;;;;;5.10;4.60;;;;;;;;;;6226935;23;20501;-88
2023/09/27 04:37:42;;;;;;;14.97;6.17;;;;;;;;;;6227471;23;20382;-89
2023/09/27 04:40:14;;;;;;;8.50;6.57;;;;;;;;;;6228561;22;20848;-88
2023/09/27 04:42:44;;;;;;;11.10;6.10;;;;;;;;;;6230909;23;20386;-88
2023/09/27 04:45:11;;;;;;;8.23;5.97;;;;;;;;;;6227549;23;20401;-89
2023/09/27 04:47:37;;;;;;;7.10;5.80;;;;;;;;;;6229430;23;20378;-88
2023/09/27 04:50:06;;;;;;;7.87;6.10;;;;;;;;;;6226110;23;20394;-88
2023/09/27 04:52:32;;;;;;;8.13;5.87;;;;;;;;;;6254388;23;20442;-88
2023/09/27 04:54:58;;;;;;;8.07;5.13;;;;;;;;;;6228432;23;20382;-88
2023/09/27 04:57:25;;;;;;;6.00;5.10;;;;;;;;;;6229909;23;20382;-87
2023/09/27 04:59:54;;;;;;;6.53;5.30;;;;;;;;;;6228581;23;20776;-88
2023/09/27 05:02:20;;;;;;;9.20;5.50;;;;;;;;;;6231491;23;20497;-88
2023/09/27 05:04:47;;;;;;;6.57;5.07;;;;;;;;;;6228351;23;20398;-88
2023/09/27 05:07:13;;;;;;;7.07;5.57;;;;;;;;;;6227815;23;20390;-85
2023/09/27 05:09:39;;;;;;;6.73;5.07;;;;;;;;;;6228931;23;20438;-90
2023/09/27 05:12:07;;;;;;;5.10;4.60;;;;;;;;;;6237341;23;20448;-88
2023/09/27 05:14:33;;;;;;;8.37;5.40;;;;;;;;;;6231817;23;20391;-88
2023/09/27 05:16:59;;;;;;;5.87;4.93;;;;;;;;;;6228682;23;20464;-90
2023/09/27 05:19:25;;;;;;;8.83;5.10;;;;;;;;;;6232757;22;20390;-89
2023/09/27 05:21:51;;;;;;;6.53;5.17;;;;;;;;;;6229224;23;20426;-89
2023/09/27 05:24:17;;;;;;;7.20;5.60;;;;;;;;;;6231102;23;20378;-88
2023/09/27 05:26:43;;;;;;;5.70;4.80;;;;;;;;;;6225271;23;20382;-89
2023/09/27 05:29:13;;;;;;;10.13;6.00;;;;;;;;;;6229246;23;20394;-88
2023/09/27 05:31:40;;;;;;;6.60;4.70;;;;;;;;;;6228950;23;20424;-90
2023/09/27 05:34:06;;;;;;;5.93;5.13;;;;;;;;;;6232619;23;20399;-91
2023/09/27 05:36:32;;;;;;;5.33;4.57;;;;;;;;;;6234401;23;20476;-90
2023/09/27 05:38:58;;;;;;;6.13;4.27;;;;;;;;;;6230287;23;20381;-89
2023/09/27 05:41:25;;;;;;;5.10;4.63;;;;;;;;;;6233007;23;20398;-89
2023/09/27 05:43:51;;;;;;;5.50;4.83;;;;;;;;;;6226951;23;20379;-89
2023/09/27 05:46:17;;;;;;;5.50;5.00;;;;;;;;;;6237114;23;20365;-89
2023/09/27 05:48:43;;;;;;;6.90;4.63;;;;;;;;;;6227183;23;20760;-90
2023/09/27 05:51:10;;;;;;;4.83;4.33;;;;;;;;;;6232369;23;20382;-88
2023/09/27 05:53:36;;;;;;;5.20;4.70;;;;;;;;;;6228437;23;20881;-90
2023/09/27 05:56:03;;;;;;;7.00;4.30;;;;;;;;;;6231872;23;20387;-90
2023/09/27 05:58:33;;;;;;;6.00;4.00;;;;;;;;;;6228475;23;20401;-90
2023/09/27 06:01:00;;;;;;;5.07;4.50;;;;;;;;;;6232489;23;20421;-90
2023/09/27 06:03:26;;;;;;;5.27;4.77;;;;;;;;;;6228703;23;20418;-89
2023/09/27 06:05:52;;;;;;;4.43;3.80;;;;;;;;;;6231433;23;20436;-89
2023/09/27 06:08:18;;;;;;;5.60;4.87;;;;;;;;;;6229344;23;20417;-89
2023/09/27 06:10:45;;;;;;;7.93;5.00;;;;;;;;;;6228871;23;20390;-89
2023/09/27 06:13:11;;;;;;;5.00;4.50;;;;;;;;;;6228606;23;20379;-89
2023/09/27 06:15:37;;;;;;;6.23;5.40;;;;;;;;;;6229190;23;20398;-88
2023/09/27 06:18:03;;;;;;;9.67;5.13;;;;;;;;;;6227207;23;20397;-88
2023/09/27 06:20:55;;;;;;;5.43;4.97;;;;;;;;;;6231131;23;20413;-87
2023/09/27 06:23:21;;;;;;;8.60;6.53;;;;;;;;;;6201661;23;20386;-87
2023/09/27 06:25:51;;;;;;;5.63;5.13;;;;;;;;;;6229680;23;20378;-86
2023/09/27 06:28:18;;;;;;;6.33;5.30;;;;;;;;;;6228165;23;20383;-88
2023/09/27 06:30:47;;;;;;;7.43;5.87;;;;;;;;;;6232538;23;20453;-89
2023/09/27 06:33:13;;;;;;;8.00;6.30;;;;;;;;;;6228539;23;20401;-88
2023/09/27 06:35:42;;;;;;;8.13;6.30;;;;;;;;;;6228686;23;20386;-88
2023/09/27 06:38:08;;;;;;;6.40;5.37;;;;;;;;;;6227814;23;20374;-89
2023/09/27 06:40:37;;;;;;;6.83;6.20;;;;;;;;;;6229573;23;20402;-87
2023/09/27 06:43:05;;;;;;;6.10;5.27;;;;;;;;;;6234797;23;20366;-89
2023/09/27 06:45:32;;;;;;;6.00;4.63;;;;;;;;;;6235828;23;20375;-88
2023/09/27 06:47:59;;;;;;;6.03;5.20;;;;;;;;;;6235450;22;20378;-88
2023/09/27 06:50:27;;;;;;;9.23;6.13;;;;;;;;;;6234372;23;20366;-88
2023/09/27 06:52:53;;;;;;;10.83;6.50;;;;;;;;;;6234080;23;20378;-89
2023/09/27 06:55:29;;;;;;;8.53;5.10;;;;;;;;;;6234224;23;20375;-90
2023/09/27 06:57:55;;;;;;;7.80;5.83;;;;;;;;;;6172120;23;20383;-88
2023/09/27 07:00:24;;;;;;;11.00;7.20;;;;;;;;;;6167058;23;20388;-89
2023/09/27 07:02:51;;;;;;;17.23;6.77;;;;;;;;;;6170634;23;20969;-88
2023/09/27 07:05:22;;;;;;;6.73;6.13;;;;;;;;;;6165939;23;20381;-88
2023/09/27 07:07:52;;;;;;;12.60;8.73;;;;;;;;;;6169354;23;20412;-87
2023/09/27 07:10:19;;;;;;;7.53;6.73;;;;;;;;;;6161073;23;20391;-88
2023/09/27 07:12:46;;;;;;;8.27;5.90;;;;;;;;;;6164349;23;20423;-87
2023/09/27 07:15:13;;;;;;;6.67;5.07;;;;;;;;;;6159179;23;20402;-88
2023/09/27 07:17:44;;;;;;;11.10;5.60;;;;;;;;;;6160705;23;20392;-88
2023/09/27 07:20:36;;;;;;;5.80;5.20;;;;;;;;;;6164114;23;20387;-87
2023/09/27 07:22:58;;;;;;;6.90;5.53;;;;;;;;;;6169289;23;20372;-88
2023/09/27 07:25:25;;;;;;;7.93;5.47;;;;;;;;;;6162127;23;20460;-87
2023/09/27 07:27:52;;;;;;;5.60;5.00;;;;;;;;;;6176488;23;20381;-87
2023/09/27 07:30:18;;;;;;;6.50;5.90;;;;;;;;;;6225773;23;20542;-88
2023/09/27 07:33:06;;;;;;;5.77;5.27;;;;;;;;;;6226993;23;20841;-88
2023/09/27 07:35:35;;;;;;;8.90;6.87;;;;;;;;;;6225744;23;20438;-88
2023/09/27 07:38:01;;;;;;;9.23;6.03;;;;;;;;;;6230788;23;20386;-89
2023/09/27 07:40:27;;;;;;;6.67;5.50;;;;;;;;;;6227535;23;20398;-89
2023/09/27 07:42:53;;;;;;;12.10;5.43;;;;;;;;;;6229856;23;20384;-89
2023/09/27 07:45:22;;;;;;;5.43;4.93;;;;;;;;;;6227772;23;20374;-88
2023/09/27 07:47:50;;;;;;;8.60;6.40;;;;;;;;;;6231494;23;20461;-89
2023/09/27 07:50:16;;;;;;;9.37;5.90;;;;;;;;;;6229083;23;20404;-89
2023/09/27 07:52:42;;;;;;;9.60;5.73;;;;;;;;;;6233150;23;20365;-90
2023/09/27 07:55:10;;;;;;;7.90;5.67;;;;;;;;;;6228324;23;20388;-90
2023/09/27 07:57:37;;;;;;;7.83;5.70;;;;;;;;;;6238733;23;20474;-90
2023/09/27 08:00:09;;;;;;;4.63;4.23;;;;;;;;;;6228078;23;20782;-88
2023/09/27 08:02:36;;;;;;;6.43;5.10;;;;;;;;;;6230325;23;20794;-90
2023/09/27 08:05:09;;;;;;;6.13;5.53;;;;;;;;;;6231392;23;20429;-89
2023/09/27 08:07:36;;;;;;;6.60;5.33;;;;;;;;;;6230621;23;20914;-91
2023/09/27 08:10:02;;;;;;;6.00;5.40;;;;;;;;;;6232845;23;20369;-91
2023/09/27 08:12:31;;;;;;;5.77;4.60;;;;;;;;;;6230555;23;20386;-91
2023/09/27 08:14:58;;;;;;;5.53;4.70;;;;;;;;;;6231093;23;20456;-91
2023/09/27 08:17:24;;;;;;;8.93;4.90;;;;;;;;;;6229878;23;20383;-92
2023/09/27 08:19:51;;;;;;;8.20;5.47;;;;;;;;;;6231894;23;20362;-90
2023/09/27 08:22:17;;;;;;;7.43;5.30;;;;;;;;;;6228939;23;21139;-89
2023/09/27 08:24:43;;;;;;;7.00;4.70;;;;;;;;;;6231296;23;20465;-89
2023/09/27 08:27:09;;;;;;;6.37;4.63;;;;;;;;;;6231101;23;20395;-90
2023/09/27 08:29:35;;;;;;;5.97;4.70;;;;;;;;;;6236838;23;20378;-90
2023/09/27 08:32:01;;;;;;;5.00;4.43;;;;;;;;;;6228729;23;20375;-90
2023/09/27 08:34:27;;;;;;;8.23;5.93;;;;;;;;;;6232071;23;20374;-89
2023/09/27 08:36:54;;;;;;;7.83;4.83;;;;;;;;;;6228232;23;20389;-90
2023/09/27 08:39:20;;;;;;;4.90;4.33;;;;;;;;;;6229598;23;20366;-89
2023/09/27 08:41:46;;;;;;;6.17;4.70;;;;;;;;;;6233235;23;20478;-89
2023/09/27 08:44:12;;;;;;;6.13;4.63;;;;;;;;;;6227075;23;20402;-89
2023/09/27 08:46:38;;;;;;;5.73;4.50;;;;;;;;;;6228083;23;20457;-89
2023/09/27 08:49:04;;;;;;;8.70;4.60;;;;;;;;;;6228489;23;20404;-89
2023/09/27 08:51:30;;;;;;;7.20;5.07;;;;;;;;;;6232759;23;20382;-90
2023/09/27 08:53:56;;;;;;;5.70;5.10;;;;;;;;;;6229567;23;20464;-89
2023/09/27 08:56:23;;;;;;;5.07;4.10;;;;;;;;;;6229380;23;20454;-88
2023/09/27 08:58:51;;;;;;;4.80;3.80;;;;;;;;;;6230152;23;20409;-90
2023/09/27 09:01:17;;;;;;;5.00;4.10;;;;;;;;;;6237816;23;20429;-89
2023/09/27 09:03:43;;;;;;;4.00;3.60;;;;;;;;;;6228629;23;20377;-89
2023/09/27 09:06:11;;;;;;;4.77;4.30;;;;;;;;;;6232612;23;20393;-90
2023/09/27 09:08:40;;;;;;;6.00;4.80;;;;;;;;;;6230467;23;20375;-90
2023/09/27 09:11:10;;;;;;;5.90;4.83;;;;;;;;;;6236271;23;21164;-90
2023/09/27 09:14:03;;;;;;;8.17;4.40;;;;;;;;;;6231603;23;20438;-91
2023/09/27 09:16:39;;;;;;;6.57;4.97;;;;;;;;;;6235844;23;20409;-90
2023/09/27 09:19:24;;;;;;;5.80;3.97;;;;;;;;;;6230337;23;20416;-90
2023/09/27 09:22:00;;;;;;;4.67;4.13;;;;;;;;;;6231263;23;20415;-90
2023/09/27 09:24:26;;;;;;;4.23;3.83;;;;;;;;;;6255616;23;20370;-92
2023/09/27 09:27:04;;;;;;;4.20;3.80;;;;;;;;;;6237878;23;20802;-90
2023/09/27 09:30:09;;;;;;;;;;;;;;;;;;;;;
2023/09/27 09:32:36;;;;;;;5.73;4.30;;;;;;;;;;6256057;23;20892;-91
2023/09/27 09:35:02;;;;;;;5.07;3.90;;;;;;;;;;6232014;23;20458;-90
2023/09/27 09:37:29;;;;;;;5.13;4.20;;;;;;;;;;6231368;23;20365;-90
2023/09/27 09:40:14;;;;;;;6.27;4.73;;;;;;;;;;6232253;23;20374;-93
2023/09/27 09:42:41;;;;;;;4.73;4.10;;;;;;;;;;6231358;23;20382;-90
2023/09/27 09:45:10;;;;;;;5.90;4.30;;;;;;;;;;6230258;23;20355;-90
2023/09/27 09:47:36;;;;;;;5.80;3.93;;;;;;;;;;6228491;23;20402;-90
2023/09/27 09:50:06;;;;;;;3.80;3.20;;;;;;;;;;6231098;23;20394;-90
2023/09/27 09:52:35;;;;;;;4.37;3.90;;;;;;;;;;6229432;23;20378;-89
2023/09/27 09:55:03;;;;;;;5.67;3.87;;;;;;;;;;6229400;23;20378;-92
2023/09/27 09:57:35;;;;;;;4.13;3.73;;;;;;;;;;6229644;23;20418;-90
2023/09/27 10:00:16;;;;;;;5.43;4.00;;;;;;;;;;6232296;23;20434;-90
2023/09/27 10:02:55;;;;;;;4.17;3.77;;;;;;;;;;6240472;22;20399;-91
2023/09/27 10:05:22;;;;;;;4.20;3.80;;;;;;;;;;6254585;23;20378;-92
2023/09/27 10:07:50;;;;;;;4.00;3.57;;;;;;;;;;6233705;23;20394;-91
2023/09/27 10:10:19;;;;;;;5.17;3.30;;;;;;;;;;6229979;23;20389;-92
2023/09/27 10:12:46;;;;;;;4.03;3.63;;;;;;;;;;6233318;23;20378;-91
2023/09/27 10:15:12;;;;;;;5.03;4.53;;;;;;;;;;6229870;23;20410;-92
2023/09/27 10:17:38;;;;;;;4.97;4.10;;;;;;;;;;6231267;22;20437;-89
2023/09/27 10:20:14;;;;;;;4.67;3.33;;;;;;;;;;6228384;23;20780;-91
2023/09/27 10:22:43;;;;;;;4.80;4.30;;;;;;;;;;6231692;23;20374;-91
2023/09/27 10:25:28;;;;;;;5.57;4.40;;;;;;;;;;6229724;23;20370;-92
2023/09/27 10:28:12;;;;;;;8.50;3.70;;;;;;;;;;6257529;23;20358;-93
2023/09/27 10:30:58;;;;;;;9.03;3.80;;;;;;;;;;6258410;22;20446;-92
2023/09/27 10:33:29;;;;;;;4.83;3.30;;;;;;;;;;6260280;23;20802;-93
2023/09/27 10:36:26;;;;;;;3.80;3.50;;;;;;;;;;6259215;22;20362;-90
2023/09/27 10:38:52;;;;;;;6.53;3.67;;;;;;;;;;6229105;23;20365;-91
2023/09/27 10:41:38;;;;;;;4.80;3.30;;;;;;;;;;6253770;23;20456;-90
2023/09/27 10:44:04;;;;;;;5.40;3.53;;;;;;;;;;6252634;23;20354;-92
2023/09/27 10:46:45;;;;;;;3.33;3.03;;;;;;;;;;6230274;23;20747;-90
2023/09/27 10:49:12;;;;;;;3.33;2.83;;;;;;;;;;6253922;23;20461;-91
2023/09/27 10:51:40;;;;;;;3.50;3.20;;;;;;;;;;6230877;23;20421;-92
2023/09/27 10:54:10;;;;;;;3.40;3.03;;;;;;;;;;6227812;23;20386;-91
2023/09/27 10:56:37;;;;;;;6.07;3.17;;;;;;;;;;6227431;23;20426;-91
2023/09/27 10:59:04;;;;;;;3.57;3.27;;;;;;;;;;6225308;23;20420;-90
2023/09/27 11:01:31;;;;;;;3.87;3.47;;;;;;;;;;6226554;23;20425;-92
2023/09/27 11:04:01;;;;;;;3.70;3.40;;;;;;;;;;6227155;23;20453;-90
2023/09/27 11:06:27;;;;;;;4.03;2.97;;;;;;;;;;6235781;22;20381;-93
2023/09/27 11:09:12;;;;;;;3.50;2.80;;;;;;;;;;6230329;22;20378;-93
2023/09/27 11:11:39;;;;;;;4.30;3.23;;;;;;;;;;6233816;22;20423;-92
2023/09/27 11:14:05;;;;;;;3.07;2.43;;;;;;;;;;6236196;23;20430;-92
2023/09/27 11:16:31;;;;;;;3.60;2.80;;;;;;;;;;6229636;23;20390;-91
2023/09/27 11:18:57;;;;;;;3.40;3.10;;;;;;;;;;6231372;23;20374;-91
2023/09/27 11:21:27;;;;;;;3.40;2.80;;;;;;;;;;6227279;23;20418;-91
2023/09/27 11:23:59;;;;;;;10.00;3.30;;;;;;;;;;6232688;23;20381;-92
2023/09/27 11:26:25;;;;;;;3.33;2.70;;;;;;;;;;6225846;23;20378;-90
2023/09/27 11:28:56;;;;;;;3.40;3.10;;;;;;;;;;6226687;23;20382;-91
2023/09/27 11:31:22;;;;;;;2.80;2.50;;;;;;;;;;6225369;23;20719;-90
2023/09/27 11:33:48;;;;;;;2.97;2.50;;;;;;;;;;6226214;23;20398;-91
2023/09/27 11:36:14;;;;;;;2.70;2.40;;;;;;;;;;6225880;23;20374;-91
2023/09/27 11:38:48;;;;;;;4.23;2.67;;;;;;;;;;6235248;23;20389;-90
2023/09/27 11:41:16;;;;;;;2.53;2.33;;;;;;;;;;6227038;23;20513;-88
2023/09/27 11:43:42;;;;;;;2.87;2.40;;;;;;;;;;6231899;23;20401;-89
2023/09/27 11:46:08;;;;;;;3.50;2.50;;;;;;;;;;6226636;23;20385;-89
2023/09/27 11:48:34;;;;;;;2.43;2.23;;;;;;;;;;6228621;23;20447;-89
2023/09/27 11:51:00;;;;;;;2.93;2.07;;;;;;;;;;6226734;23;20395;-89
2023/09/27 11:53:26;;;;;;;2.90;2.20;;;;;;;;;;6229868;23;20386;-89
2023/09/27 11:55:55;;;;;;;2.40;2.20;;;;;;;;;;6226844;23;20405;-91
2023/09/27 11:58:21;;;;;;;2.60;2.40;;;;;;;;;;6229242;23;20382;-89
2023/09/27 12:00:47;;;;;;;2.20;2.00;;;;;;;;;;6225909;23;20795;-89
2023/09/27 12:03:13;;;;;;;2.93;2.10;;;;;;;;;;6228992;23;20363;-89
2023/09/27 12:05:39;;;;;;;2.50;2.20;;;;;;;;;;6226303;23;20381;-88
2023/09/27 12:08:11;;;;;;;4.83;2.57;;;;;;;;;;6230246;22;20370;-89
2023/09/27 12:10:37;;;;;;;4.57;2.63;;;;;;;;;;6255157;23;20435;-91
2023/09/27 12:13:03;;;;;;;4.87;2.37;;;;;;;;;;6225086;23;20370;-90
2023/09/27 12:15:30;;;;;;;7.60;2.50;;;;;;;;;;6228606;22;20386;-90
2023/09/27 12:17:56;;;;;;;2.40;2.20;;;;;;;;;;6231189;23;20968;-88
2023/09/27 12:20:27;;;;;;;3.80;2.30;;;;;;;;;;6226231;23;20366;-89
2023/09/27 12:22:53;;;;;;;2.60;2.40;;;;;;;;;;6228814;23;20551;-90
2023/09/27 12:25:19;;;;;;;3.07;2.13;;;;;;;;;;6225051;23;20428;-89
2023/09/27 12:27:45;;;;;;;3.27;2.30;;;;;;;;;;6231479;23;20377;-87
2023/09/27 12:30:12;;;;;;;2.17;1.87;;;;;;;;;;6225436;23;20420;-89
2023/09/27 12:32:37;;;;;;;2.30;2.00;;;;;;;;;;6231270;23;20854;-88
2023/09/27 12:35:04;;;;;;;3.47;2.43;;;;;;;;;;6227114;23;20453;-89
2023/09/27 12:37:31;;;;;;;2.67;2.10;;;;;;;;;;6228417;23;20465;-89
2023/09/27 12:39:57;;;;;;;3.53;2.50;;;;;;;;;;6253958;23;20505;-89
2023/09/27 12:42:23;;;;;;;3.33;2.20;;;;;;;;;;6235129;23;20426;-89
2023/09/27 12:44:49;;;;;;;2.17;1.93;;;;;;;;;;6228565;23;20386;-90
2023/09/27 12:47:16;;;;;;;3.40;2.60;;;;;;;;;;6228449;23;20383;-88
2023/09/27 12:49:42;;;;;;;2.97;2.57;;;;;;;;;;6228267;23;20907;-90
2023/09/27 12:52:09;;;;;;;3.43;2.20;;;;;;;;;;6230480;23;20366;-89
2023/09/27 12:54:35;;;;;;;2.27;2.03;;;;;;;;;;6257140;23;20372;-89
2023/09/27 12:57:03;;;;;;;4.60;2.47;;;;;;;;;;6234128;23;20366;-89
2023/09/27 12:59:28;;;;;;;4.10;2.40;;;;;;;;;;6194300;23;20164;-90
2023/09/27 13:01:55;;;;;;;2.87;2.00;;;;;;;;;;6195515;23;20412;-88
2023/09/27 13:04:21;;;;;;;3.33;2.70;;;;;;;;;;6193395;23;20384;-88
2023/09/27 13:06:48;;;;;;;3.10;2.50;;;;;;;;;;6139933;23;20369;-89
2023/09/27 13:09:17;;;;;;;2.60;2.40;;;;;;;;;;6109369;23;20385;-91
2023/09/27 13:11:43;;;;;;;3.37;2.47;;;;;;;;;;6110480;23;20382;-91
2023/09/27 13:14:09;;;;;;;2.83;2.50;;;;;;;;;;6110498;23;20453;-90
2023/09/27 13:16:35;;;;;;;4.40;2.47;;;;;;;;;;6113273;23;20438;-91
2023/09/27 13:19:01;;;;;;;2.43;2.23;;;;;;;;;;6110832;23;20400;-89
2023/09/27 13:21:27;;;;;;;3.93;2.40;;;;;;;;;;6108005;23;20449;-89
2023/09/27 13:23:53;;;;;;;4.50;2.00;;;;;;;;;;6107507;23;20409;-90
2023/09/27 13:26:22;;;;;;;4.03;2.30;;;;;;;;;;6112578;23;20381;-90
2023/09/27 13:28:48;;;;;;;3.00;2.50;;;;;;;;;;6107160;23;20385;-90
2023/09/27 13:31:19;;;;;;;2.97;2.20;;;;;;;;;;6111249;23;20449;-89
2023/09/27 13:33:46;;;;;;;2.83;2.57;;;;;;;;;;6108495;23;20397;-88
2023/09/27 13:36:12;;;;;;;4.60;2.10;;;;;;;;;;6110782;23;20409;-90
2023/09/27 13:38:38;;;;;;;4.27;2.47;;;;;;;;;;6161145;23;20396;-90
2023/09/27 13:41:06;;;;;;;3.00;2.73;;;;;;;;;;6194504;23;20579;-90
2023/09/27 13:43:34;;;;;;;3.40;2.40;;;;;;;;;;6193292;23;20406;-90
2023/09/27 13:46:07;;;;;;;7.13;2.53;;;;;;;;;;6193685;23;20368;-89
2023/09/27 13:48:53;;;;;;;3.93;2.70;;;;;;;;;;6194729;23;20388;-90
2023/09/27 13:51:22;;;;;;;3.83;2.47;;;;;;;;;;6192609;23;20356;-90
2023/09/27 13:53:51;;;;;;;3.77;2.60;;;;;;;;;;6168050;23;20384;-90
2023/09/27 13:56:18;;;;;;;2.90;2.60;;;;;;;;;;6170118;23;20383;-91
2023/09/27 13:58:45;;;;;;;5.10;3.23;;;;;;;;;;6166949;23;20396;-90
2023/09/27 14:01:11;;;;;;;5.40;2.50;;;;;;;;;;6169163;23;20500;-90
2023/09/27 14:03:37;;;;;;;2.77;2.20;;;;;;;;;;6166320;23;20387;-89
2023/09/27 14:06:03;;;;;;;3.87;2.80;;;;;;;;;;6168000;23;20424;-92
2023/09/27 14:08:30;;;;;;;3.13;2.30;;;;;;;;;;6171188;23;20698;-89
2023/09/27 14:10:56;;;;;;;3.13;2.10;;;;;;;;;;6165875;23;20887;-90
2023/09/27 14:13:22;;;;;;;3.57;2.13;;;;;;;;;;6170033;23;20475;-91
2023/09/27 14:15:48;;;;;;;2.47;2.27;;;;;;;;;;6228416;23;20373;-89
2023/09/27 14:18:14;;;;;;;2.73;2.07;;;;;;;;;;6236771;22;20412;-90
2023/09/27 14:20:40;;;;;;;3.37;2.20;;;;;;;;;;6228378;23;20414;-90
2023/09/27 14:23:06;;;;;;;4.00;2.27;;;;;;;;;;6231976;23;20430;-91
2023/09/27 14:25:33;;;;;;;9.20;2.70;;;;;;;;;;6227778;23;20842;-90
2023/09/27 14:27:59;;;;;;;3.07;2.30;;;;;;;;;;6230270;23;20378;-90
2023/09/27 14:30:25;;;;;;;2.60;2.13;;;;;;;;;;6228872;23;20402;-90
2023/09/27 14:32:51;;;;;;;3.00;2.10;;;;;;;;;;6233706;23;20374;-90
2023/09/27 14:35:17;;;;;;;2.70;2.00;;;;;;;;;;6230024;23;20378;-90
2023/09/27 14:37:43;;;;;;;3.67;2.20;;;;;;;;;;6230714;23;20584;-90
2023/09/27 14:40:12;;;;;;;2.70;2.00;;;;;;;;;;6191922;23;20400;-88
2023/09/27 14:42:39;;;;;;;2.83;2.33;;;;;;;;;;6146156;23;20423;-90
2023/09/27 14:45:06;;;;;;;3.20;2.73;;;;;;;;;;6192495;23;20399;-90
2023/09/27 14:47:54;;;;;;;3.50;2.87;;;;;;;;;;6144449;23;20380;-90